Front Royal, Virginia
Current Conditions -  °F | °C
As of 12:55 PM on Friday 19 Dec 2014 (Local Time) from KFRR Reporting Station
Overcast Overcast  
Wind Chill: 28°   Ceiling: 3100
Heat Index: 34°   Visibility: 10mi
Dew Point: 23°   Wind: 7mph
Humidity: 65%   Direction: 310°NW
Pressure: 30.14"   Gusts: NA
Location:  38.92°N, 78.19°W
Report Text: KFRR 191755Z AUTO 31006KT 10SM OVC031 01/M05 A3014 RMK AO1
Loading
Personal Weather Stations






























Interactive Weather Map New forecast layout! Learn more

10-Day Weather Forecast

Advertisements
Track Severe Weather on mobile